Time;durP1;ratioP1;P1;durP2;ratioP2;P2;SDS_P1;SDS_P2;PMS_P1;PMS_P2;Temp;Humidity;BMP_temperature;BMP_pressure;BME280_temperature;BME280_humidity;BME280_pressure;Samples;Min_cycle;Max_cycle;Signal;HPM_P1;HPM_P2
2022/03/23 00:00:43;;;;;;;67.85;50.97;;;11.10;99.90;;;;;;4955129;28;20210;-65
2022/03/23 00:03:09;;;;;;;72.15;54.53;;;11.00;99.90;;;;;;4954352;28;20689;-65
2022/03/23 00:05:38;;;;;;;68.30;52.17;;;11.00;99.90;;;;;;4955188;28;20392;-65
2022/03/23 00:08:03;;;;;;;65.97;52.80;;;10.90;99.90;;;;;;4953531;28;20053;-65
2022/03/23 00:10:30;;;;;;;68.22;52.10;;;10.90;99.90;;;;;;4955074;28;20522;-65
2022/03/23 00:12:58;;;;;;;69.25;50.00;;;10.90;99.90;;;;;;4956081;28;20083;-65
2022/03/23 00:15:23;;;;;;;60.75;49.17;;;10.80;99.90;;;;;;4965371;28;20117;-65
2022/03/23 00:17:50;;;;;;;67.95;52.83;;;10.80;99.90;;;;;;4955294;28;20134;-65
2022/03/23 00:20:16;;;;;;;68.07;51.47;;;10.80;99.90;;;;;;4964476;28;20057;-65
2022/03/23 00:22:41;;;;;;;64.50;49.90;;;10.70;99.90;;;;;;4960303;28;20047;-65
2022/03/23 00:25:08;;;;;;;70.40;52.30;;;10.70;99.90;;;;;;4955367;28;20054;-65
2022/03/23 00:27:34;;;;;;;65.20;51.55;;;10.70;99.90;;;;;;4954864;28;20121;-65
2022/03/23 00:30:00;;;;;;;68.30;49.50;;;10.70;99.90;;;;;;4968159;28;20070;-65
2022/03/23 00:32:26;;;;;;;68.22;53.28;;;10.60;99.90;;;;;;4971563;28;20043;-65
2022/03/23 00:34:52;;;;;;;66.63;53.20;;;10.70;99.90;;;;;;4970327;28;20063;-65
2022/03/23 00:37:18;;;;;;;65.47;52.25;;;10.60;99.90;;;;;;4954458;28;20039;-65
2022/03/23 00:39:43;;;;;;;81.57;56.97;;;10.50;99.90;;;;;;4964114;28;20038;-65
2022/03/23 00:42:09;;;;;;;72.22;53.67;;;10.50;99.90;;;;;;4985808;28;20577;-65
2022/03/23 00:44:35;;;;;;;67.32;50.72;;;10.50;99.90;;;;;;4973833;28;20399;-65
2022/03/23 00:47:01;;;;;;;65.15;51.92;;;10.70;99.90;;;;;;4993935;28;20434;-65
2022/03/23 00:49:26;;;;;;;61.50;47.50;;;10.50;99.90;;;;;;4985916;28;20051;-65
2022/03/23 00:51:53;;;;;;;61.55;47.80;;;10.50;99.90;;;;;;4954827;28;20051;-65
2022/03/23 00:54:19;;;;;;;68.93;50.47;;;10.40;99.90;;;;;;4953062;29;20154;-65
2022/03/23 00:56:46;;;;;;;62.08;48.65;;;10.40;99.90;;;;;;4952640;28;20439;-65
2022/03/23 00:59:13;;;;;;;65.68;48.42;;;10.40;99.90;;;;;;4954529;28;20110;-65
2022/03/23 01:01:39;;;;;;;59.97;48.33;;;10.50;99.90;;;;;;4954332;29;20094;-65
2022/03/23 01:04:05;;;;;;;59.80;47.35;;;10.40;99.90;;;;;;4954150;28;20047;-65
2022/03/23 01:06:32;;;;;;;64.53;46.72;;;10.40;99.90;;;;;;4968287;28;20073;-65
2022/03/23 01:08:57;;;;;;;56.75;46.35;;;10.40;99.90;;;;;;4972833;28;20086;-65
2022/03/23 01:11:23;;;;;;;61.88;47.33;;;10.40;99.90;;;;;;4970684;28;20085;-65
2022/03/23 01:13:49;;;;;;;58.75;45.83;;;10.40;99.90;;;;;;4973454;28;20064;-65
2022/03/23 01:16:16;;;;;;;63.92;48.63;;;10.30;99.90;;;;;;4986791;28;20053;-65
2022/03/23 01:18:42;;;;;;;60.97;46.30;;;10.30;99.90;;;;;;4992448;28;20050;-65
2022/03/23 01:21:07;;;;;;;59.83;46.63;;;10.20;99.90;;;;;;4957076;28;20043;-65
2022/03/23 01:23:33;;;;;;;60.53;46.17;;;10.20;99.90;;;;;;4953884;28;20062;-65
2022/03/23 01:25:59;;;;;;;55.42;44.13;;;10.20;99.90;;;;;;4952761;28;20048;-65
2022/03/23 01:28:24;;;;;;;63.35;47.72;;;10.20;99.90;;;;;;4971785;28;20051;-65
2022/03/23 01:30:50;;;;;;;62.55;49.28;;;10.20;99.90;;;;;;4973715;28;20397;-65
2022/03/23 01:33:15;;;;;;;61.65;47.70;;;10.00;99.90;;;;;;4970290;28;20062;-65
2022/03/23 01:35:41;;;;;;;60.60;47.83;;;10.00;99.90;;;;;;4972988;28;20529;-65
2022/03/23 01:38:07;;;;;;;58.70;45.38;;;10.00;99.90;;;;;;4972932;28;20127;-65
2022/03/23 01:40:33;;;;;;;58.80;46.38;;;10.00;99.90;;;;;;4984254;28;20064;-65
2022/03/23 01:42:58;;;;;;;56.55;45.08;;;10.00;99.90;;;;;;4978643;28;20050;-65
2022/03/23 01:45:24;;;;;;;61.88;47.67;;;10.00;99.90;;;;;;4980501;28;20156;-65
2022/03/23 01:47:49;;;;;;;60.85;46.38;;;9.90;99.90;;;;;;4962815;28;20051;-65
2022/03/23 01:50:15;;;;;;;67.53;48.58;;;9.90;99.90;;;;;;4953436;28;20047;-65
2022/03/23 01:52:41;;;;;;;59.60;48.83;;;9.80;99.90;;;;;;4951404;28;20047;-65
2022/03/23 01:55:13;;;;;;;66.80;48.83;;;9.90;99.90;;;;;;4953498;28;20054;-65
2022/03/23 01:57:43;;;;;;;63.80;48.40;;;9.90;99.90;;;;;;4948943;28;20578;-65
2022/03/23 02:00:11;;;;;;;71.40;49.42;;;9.80;99.90;;;;;;4953403;28;20481;-65
2022/03/23 02:02:36;;;;;;;69.15;51.45;;;9.80;99.90;;;;;;4953363;28;20074;-65
2022/03/23 02:05:03;;;;;;;63.20;48.35;;;9.80;99.90;;;;;;4953480;28;20141;-65
2022/03/23 02:07:30;;;;;;;64.28;49.60;;;9.80;99.90;;;;;;4949187;28;20051;-65
2022/03/23 02:09:55;;;;;;;64.53;49.78;;;9.80;99.90;;;;;;4953245;28;20133;-65
2022/03/23 02:12:21;;;;;;;68.85;51.97;;;9.80;99.90;;;;;;4952550;28;20071;-65
2022/03/23 02:14:48;;;;;;;67.30;51.20;;;9.80;99.90;;;;;;4960798;28;20038;-65
2022/03/23 02:17:14;;;;;;;64.85;51.63;;;9.70;99.90;;;;;;4970162;28;20110;-65
2022/03/23 02:19:40;;;;;;;68.28;53.97;;;9.80;99.90;;;;;;4957263;28;20089;-65
2022/03/23 02:22:06;;;;;;;65.68;51.95;;;9.70;99.90;;;;;;4971796;28;20042;-65
2022/03/23 02:24:32;;;;;;;73.88;51.47;;;9.70;99.90;;;;;;4969641;28;20110;-65
2022/03/23 02:26:59;;;;;;;66.82;49.92;;;9.70;99.90;;;;;;4972401;28;20155;-65
2022/03/23 02:29:34;;;;;;;66.97;52.58;;;9.70;99.90;;;;;;4971075;28;20043;-65
2022/03/23 02:32:01;;;;;;;70.25;51.75;;;9.60;99.90;;;;;;4959066;28;20090;-65
2022/03/23 02:34:27;;;;;;;78.55;52.65;;;9.60;99.90;;;;;;4950521;28;20162;-65
2022/03/23 02:36:54;;;;;;;72.03;54.13;;;9.60;99.90;;;;;;4952711;28;20082;-65
2022/03/23 02:39:19;;;;;;;64.53;51.85;;;9.50;99.90;;;;;;4964176;28;20126;-65
2022/03/23 02:41:46;;;;;;;72.20;50.95;;;9.60;99.90;;;;;;4960759;28;20150;-65
2022/03/23 02:44:16;;;;;;;73.35;50.45;;;9.50;99.90;;;;;;4952927;28;20373;-65
2022/03/23 02:46:42;;;;;;;61.72;49.53;;;9.50;99.90;;;;;;4952965;28;20058;-65
2022/03/23 02:49:09;;;;;;;66.82;51.30;;;9.50;99.90;;;;;;5000081;28;20125;-65
2022/03/23 02:51:35;;;;;;;69.95;53.80;;;9.50;99.90;;;;;;4971367;28;20047;-65
2022/03/23 03:02:40;;;;;;;69.22;51.80;;;9.50;99.90;;;;;;4976714;28;20054;-65
2022/03/23 03:05:09;;;;;;;66.05;52.40;;;9.40;99.90;;;;;;4971977;28;20046;-65
2022/03/23 03:10:24;;;;;;;67.07;51.65;;;9.40;99.90;;;;;;4951239;28;20981;-65
2022/03/23 03:12:51;;;;;;;73.50;53.15;;;9.40;99.90;;;;;;4952629;28;20086;-65
2022/03/23 03:15:19;;;;;;;73.30;53.70;;;9.30;99.90;;;;;;4952005;28;20492;-65
2022/03/23 03:17:48;;;;;;;79.97;59.53;;;9.30;99.90;;;;;;4950116;28;20751;-65
2022/03/23 03:20:15;;;;;;;76.03;56.00;;;9.20;99.90;;;;;;4952116;28;20082;-65
2022/03/23 03:22:41;;;;;;;67.57;52.63;;;9.10;99.90;;;;;;4952489;28;20043;-65
2022/03/23 03:25:10;;;;;;;76.30;56.80;;;9.20;99.90;;;;;;4982942;28;20085;-65
2022/03/23 03:27:39;;;;;;;78.82;58.50;;;9.10;99.90;;;;;;4950402;28;20078;-65
2022/03/23 03:30:07;;;;;;;75.45;56.88;;;9.00;99.90;;;;;;4971763;28;20134;-65
2022/03/23 03:32:32;;;;;;;77.25;58.25;;;9.10;99.90;;;;;;4957018;28;20063;-65
2022/03/23 03:34:58;;;;;;;74.00;58.33;;;9.10;99.90;;;;;;4955970;28;20059;-65
2022/03/23 03:37:24;;;;;;;76.32;58.15;;;9.10;99.90;;;;;;4955963;28;20059;-65
2022/03/23 03:39:49;;;;;;;77.50;58.95;;;9.00;99.90;;;;;;4966405;28;20057;-65
2022/03/23 03:42:15;;;;;;;76.68;56.08;;;9.00;99.90;;;;;;4972867;28;20126;-65
2022/03/23 03:44:41;;;;;;;79.90;57.70;;;8.90;99.90;;;;;;4975309;28;20051;-65
2022/03/23 03:47:06;;;;;;;78.88;57.67;;;9.00;99.90;;;;;;4975291;28;20046;-65
2022/03/23 03:49:32;;;;;;;81.25;57.88;;;8.90;99.90;;;;;;4974258;28;20086;-65
2022/03/23 03:51:58;;;;;;;81.55;59.40;;;9.00;99.90;;;;;;4973607;28;20147;-65
2022/03/23 03:54:24;;;;;;;79.45;58.85;;;9.00;99.90;;;;;;4973327;28;20046;-65
2022/03/23 03:56:49;;;;;;;74.68;56.90;;;9.00;99.90;;;;;;4975518;28;20047;-65
2022/03/23 03:59:15;;;;;;;79.95;58.63;;;9.00;99.90;;;;;;4957579;28;20051;-65
2022/03/23 04:01:41;;;;;;;71.65;56.83;;;8.90;99.90;;;;;;4977436;28;20049;-65
2022/03/23 04:04:07;;;;;;;80.28;57.95;;;9.00;99.90;;;;;;4974141;28;20495;-65
2022/03/23 04:06:33;;;;;;;65.78;52.10;;;9.00;99.90;;;;;;4954397;28;20809;-65
2022/03/23 04:08:58;;;;;;;75.55;55.63;;;9.00;99.90;;;;;;4955326;28;20054;-65
2022/03/23 04:11:24;;;;;;;72.75;56.70;;;9.00;99.90;;;;;;4959954;28;20141;-65
2022/03/23 04:13:49;;;;;;;71.97;54.72;;;9.00;99.90;;;;;;4974022;28;20109;-65
2022/03/23 04:16:15;;;;;;;78.88;57.08;;;9.00;99.90;;;;;;4974589;28;20069;-65
2022/03/23 04:18:41;;;;;;;70.78;55.90;;;9.00;99.90;;;;;;4974735;28;20050;-65
2022/03/23 04:21:07;;;;;;;74.75;56.78;;;9.00;99.90;;;;;;4971875;28;20043;-65
2022/03/23 04:23:33;;;;;;;74.07;55.92;;;9.00;99.90;;;;;;4974108;28;20442;-65
2022/03/23 04:25:59;;;;;;;78.43;56.72;;;9.00;99.90;;;;;;4970597;28;20118;-65
2022/03/23 04:28:24;;;;;;;71.28;55.50;;;9.00;99.90;;;;;;4953922;28;20130;-65
2022/03/23 04:30:50;;;;;;;72.10;57.33;;;9.00;99.90;;;;;;4960537;28;20184;-65
2022/03/23 04:33:16;;;;;;;71.18;54.55;;;9.00;99.90;;;;;;4964802;28;20525;-65
2022/03/23 04:35:41;;;;;;;72.55;56.10;;;9.00;99.90;;;;;;4955315;28;20062;-65
2022/03/23 04:38:07;;;;;;;75.70;56.00;;;9.00;99.90;;;;;;4955369;28;20490;-65
2022/03/23 04:40:32;;;;;;;73.68;57.08;;;9.00;99.90;;;;;;4968582;28;20047;-65
2022/03/23 04:42:58;;;;;;;80.90;58.50;;;9.00;99.90;;;;;;4952795;28;20075;-65
2022/03/23 04:45:25;;;;;;;75.55;55.80;;;9.00;99.90;;;;;;4954271;28;20110;-65
2022/03/23 04:47:51;;;;;;;72.18;54.55;;;9.00;99.90;;;;;;4954751;28;20047;-65
2022/03/23 04:50:17;;;;;;;73.43;55.38;;;8.90;99.90;;;;;;4955394;28;20050;-65
2022/03/23 04:52:44;;;;;;;72.30;53.75;;;8.90;99.90;;;;;;4973482;28;20050;-65
2022/03/23 04:55:11;;;;;;;79.60;56.70;;;8.90;99.90;;;;;;4973393;28;20089;-65
2022/03/23 04:57:37;;;;;;;75.25;57.15;;;8.90;99.90;;;;;;4973820;28;20118;-65
2022/03/23 05:00:04;;;;;;;73.60;53.40;;;8.90;99.90;;;;;;4971655;28;20130;-65
2022/03/23 05:02:29;;;;;;;69.20;52.63;;;8.80;99.90;;;;;;4990989;28;20121;-65
2022/03/23 05:04:55;;;;;;;75.93;56.50;;;8.80;99.90;;;;;;4990771;28;20134;-65
2022/03/23 05:07:21;;;;;;;76.57;56.80;;;8.80;99.90;;;;;;4953971;28;20039;-65
2022/03/23 05:09:46;;;;;;;76.75;58.80;;;8.80;99.90;;;;;;4953720;28;20511;-65
2022/03/23 05:12:12;;;;;;;79.75;59.08;;;8.70;99.90;;;;;;4954702;28;20403;-65
2022/03/23 05:14:37;;;;;;;80.57;57.10;;;8.70;99.90;;;;;;4969316;28;20051;-65
2022/03/23 05:17:03;;;;;;;79.88;59.08;;;8.60;99.90;;;;;;4973211;28;20082;-65
2022/03/23 05:19:29;;;;;;;78.47;58.17;;;8.60;99.90;;;;;;4973280;28;20043;-65
2022/03/23 05:21:55;;;;;;;73.40;56.45;;;8.60;99.90;;;;;;4971814;28;20054;-65
2022/03/23 05:24:20;;;;;;;76.00;56.85;;;8.60;99.90;;;;;;4972338;28;20126;-65
2022/03/23 05:26:46;;;;;;;78.93;57.03;;;8.60;99.90;;;;;;4973868;28;20402;-65
2022/03/23 05:29:12;;;;;;;73.93;57.40;;;8.60;99.90;;;;;;4971467;28;20051;-65
2022/03/23 05:31:38;;;;;;;76.47;59.65;;;8.50;99.90;;;;;;4964220;28;20491;-65
2022/03/23 05:34:03;;;;;;;72.07;55.85;;;8.60;99.90;;;;;;4953893;28;20487;-65
2022/03/23 05:36:30;;;;;;;75.10;58.22;;;8.50;99.90;;;;;;4953336;28;20047;-65
2022/03/23 05:38:56;;;;;;;76.40;56.75;;;8.50;99.90;;;;;;4952299;28;20043;-65
2022/03/23 05:41:22;;;;;;;72.70;56.13;;;8.50;99.90;;;;;;4955064;28;20395;-65
2022/03/23 05:43:48;;;;;;;74.47;57.88;;;8.50;99.90;;;;;;4952545;28;20043;-65
2022/03/23 05:46:13;;;;;;;72.35;56.30;;;8.40;99.90;;;;;;4951697;28;20121;-65
2022/03/23 05:48:39;;;;;;;83.88;59.55;;;8.40;99.90;;;;;;4953415;28;20091;-65
2022/03/23 05:51:04;;;;;;;77.88;58.67;;;8.40;99.90;;;;;;4953791;28;20104;-65
2022/03/23 05:53:30;;;;;;;78.10;57.60;;;8.30;99.90;;;;;;4962948;28;20558;-65
2022/03/23 05:55:55;;;;;;;79.90;57.95;;;8.40;99.90;;;;;;4973068;28;20051;-65
2022/03/23 05:58:22;;;;;;;70.45;54.38;;;8.40;99.90;;;;;;4971886;28;20406;-65
2022/03/23 06:00:47;;;;;;;75.97;56.88;;;8.40;99.90;;;;;;4972763;28;20049;-65
2022/03/23 06:03:13;;;;;;;78.20;54.97;;;8.40;99.90;;;;;;4957869;28;20043;-65
2022/03/23 06:05:38;;;;;;;79.95;59.00;;;8.40;99.90;;;;;;4951265;29;20884;-65
2022/03/23 06:08:08;;;;;;;78.82;59.45;;;8.40;99.90;;;;;;4952024;28;20522;-65
2022/03/23 06:10:33;;;;;;;71.18;56.08;;;8.40;99.90;;;;;;4952662;28;20224;-65
2022/03/23 06:12:59;;;;;;;74.13;57.47;;;8.40;99.90;;;;;;4951251;28;20039;-65
2022/03/23 06:15:24;;;;;;;73.78;55.50;;;8.40;99.90;;;;;;4952107;28;20190;-65
2022/03/23 06:17:50;;;;;;;76.03;57.22;;;8.50;99.90;;;;;;4952783;28;20035;-65
2022/03/23 06:20:16;;;;;;;83.05;61.67;;;8.50;99.90;;;;;;4959462;28;20051;-65
2022/03/23 06:22:41;;;;;;;79.47;61.25;;;8.50;99.90;;;;;;4953259;28;20077;-65
2022/03/23 06:25:08;;;;;;;79.20;61.45;;;8.60;99.90;;;;;;4951902;28;20046;-65
2022/03/23 06:27:34;;;;;;;76.47;59.47;;;8.60;99.90;;;;;;4951571;28;20047;-65
2022/03/23 06:30:00;;;;;;;74.13;58.13;;;8.70;99.90;;;;;;4955446;28;20510;-65
2022/03/23 06:32:26;;;;;;;81.88;61.40;;;8.70;99.90;;;;;;4971174;28;20043;-65
2022/03/23 06:34:51;;;;;;;78.60;59.80;;;8.70;99.90;;;;;;4969338;28;20055;-65
2022/03/23 06:37:17;;;;;;;72.60;58.03;;;8.70;99.90;;;;;;4971714;28;20050;-65
2022/03/23 06:39:42;;;;;;;74.90;57.55;;;8.80;99.90;;;;;;4976521;28;20089;-65
2022/03/23 06:42:08;;;;;;;84.18;64.05;;;8.80;99.90;;;;;;4991013;28;20057;-65
2022/03/23 06:44:33;;;;;;;87.90;61.17;;;8.90;99.90;;;;;;4982570;28;20043;-65
2022/03/23 06:46:59;;;;;;;83.78;60.42;;;8.90;99.90;;;;;;4971838;28;20402;-65
2022/03/23 06:49:25;;;;;;;82.22;60.55;;;9.00;99.90;;;;;;4970765;28;20054;-65
2022/03/23 06:51:50;;;;;;;78.28;58.33;;;9.10;99.90;;;;;;4967347;28;20126;-65
2022/03/23 06:54:17;;;;;;;84.40;59.53;;;9.20;99.90;;;;;;4971390;28;20125;-65
2022/03/23 06:56:42;;;;;;;84.00;60.10;;;9.20;99.90;;;;;;4971271;28;20058;-65
2022/03/23 06:59:08;;;;;;;76.47;57.33;;;9.30;99.90;;;;;;4971955;28;20038;-65
2022/03/23 07:01:33;;;;;;;75.07;58.53;;;9.30;99.90;;;;;;4958501;28;20085;-65
2022/03/23 07:03:59;;;;;;;79.90;60.00;;;9.40;99.90;;;;;;4951893;28;20051;-65
2022/03/23 07:06:24;;;;;;;78.50;60.05;;;9.50;99.90;;;;;;4951455;28;20047;-65
2022/03/23 07:11:34;;;;;;;81.32;57.97;;;9.60;99.90;;;;;;4971243;28;20450;-65
2022/03/23 07:14:00;;;;;;;75.68;57.58;;;9.70;99.90;;;;;;4971963;28;20046;-65
2022/03/23 07:16:28;;;;;;;76.82;58.85;;;9.80;99.90;;;;;;4950978;28;20105;-65
2022/03/23 07:18:54;;;;;;;75.45;58.67;;;9.80;99.90;;;;;;4952017;28;20058;-65
2022/03/23 07:21:19;;;;;;;76.82;56.45;;;10.00;99.90;;;;;;4952489;28;20047;-65
2022/03/23 07:23:45;;;;;;;84.75;55.55;;;10.00;99.90;;;;;;4951809;28;20046;-65
2022/03/23 07:26:11;;;;;;;74.32;55.97;;;10.10;99.90;;;;;;4951487;28;20071;-65
2022/03/23 07:28:36;;;;;;;76.32;55.42;;;10.20;99.90;;;;;;4970429;28;20047;-65
2022/03/23 07:31:02;;;;;;;75.38;56.70;;;10.30;99.90;;;;;;4964055;28;20043;-65
2022/03/23 07:33:28;;;;;;;84.40;58.45;;;10.30;99.90;;;;;;4951337;28;20101;-65
2022/03/23 07:35:54;;;;;;;76.72;55.03;;;10.40;99.90;;;;;;4952461;28;20055;-65
2022/03/23 07:38:20;;;;;;;77.47;54.90;;;10.50;99.90;;;;;;4951284;28;20047;-65
2022/03/23 07:40:45;;;;;;;82.40;57.83;;;10.60;99.90;;;;;;4963803;28;20043;-65
2022/03/23 07:43:11;;;;;;;74.30;50.13;;;10.60;99.90;;;;;;4971591;28;20039;-65
2022/03/23 07:45:36;;;;;;;73.60;51.10;;;10.70;99.90;;;;;;4968838;28;20164;-65
2022/03/23 07:48:02;;;;;;;78.88;53.55;;;10.80;99.90;;;;;;4959616;28;20058;-65
2022/03/23 07:50:28;;;;;;;74.80;53.03;;;10.90;99.90;;;;;;4951464;28;20827;-65
2022/03/23 07:52:54;;;;;;;76.90;51.00;;;10.90;99.90;;;;;;4951524;28;20046;-64
2022/03/23 07:55:19;;;;;;;78.38;52.83;;;10.90;99.90;;;;;;4950337;28;20098;-65
2022/03/23 07:57:45;;;;;;;79.55;52.67;;;10.90;99.90;;;;;;4951853;28;20439;-65
2022/03/23 08:00:11;;;;;;;77.65;51.75;;;11.00;99.90;;;;;;4959641;28;20505;-65
2022/03/23 08:02:38;;;;;;;67.50;47.53;;;11.00;99.90;;;;;;4951149;28;20058;-65
2022/03/23 08:05:05;;;;;;;79.85;51.55;;;11.10;99.90;;;;;;4964295;28;20050;-65
2022/03/23 08:07:31;;;;;;;65.93;47.60;;;11.20;99.90;;;;;;4969613;28;20076;-65
2022/03/23 08:09:56;;;;;;;77.88;47.03;;;11.40;99.90;;;;;;4970837;28;20082;-65
2022/03/23 08:12:22;;;;;;;59.72;46.22;;;12.00;99.90;;;;;;4970098;28;20382;-65
2022/03/23 08:14:48;;;;;;;64.88;46.90;;;12.60;99.90;;;;;;4971388;28;20402;-65
2022/03/23 08:17:13;;;;;;;66.82;45.53;;;12.70;99.90;;;;;;4970012;28;20428;-65
2022/03/23 08:19:39;;;;;;;56.55;40.70;;;13.70;99.90;;;;;;4973551;28;20038;-65
2022/03/23 08:22:05;;;;;;;58.40;41.55;;;14.50;99.90;;;;;;4974878;28;20046;-65
2022/03/23 08:24:31;;;;;;;54.33;40.58;;;15.00;99.90;;;;;;4974325;28;20118;-65
2022/03/23 08:26:57;;;;;;;52.28;38.67;;;15.60;99.90;;;;;;4971658;28;20051;-65
2022/03/23 08:29:23;;;;;;;52.40;39.70;;;15.80;99.90;;;;;;4972611;28;20866;-65
2022/03/23 08:31:49;;;;;;;48.65;35.20;;;16.20;99.90;;;;;;4973465;28;20062;-65
2022/03/23 08:34:14;;;;;;;49.97;35.42;;;16.50;99.90;;;;;;4970620;28;20050;-65
2022/03/23 08:36:40;;;;;;;49.95;37.60;;;16.60;99.90;;;;;;4958296;28;20089;-65
2022/03/23 08:39:06;;;;;;;70.13;36.70;;;17.10;99.90;;;;;;4955412;28;20078;-65
2022/03/23 08:41:31;;;;;;;48.35;34.38;;;17.30;99.90;;;;;;4990731;28;20047;-65
2022/03/23 08:43:57;;;;;;;43.10;31.88;;;17.70;99.90;;;;;;4970655;28;20046;-65
2022/03/23 08:46:23;;;;;;;39.22;28.77;;;17.80;99.90;;;;;;4973818;28;20499;-65
2022/03/23 08:48:49;;;;;;;43.92;29.88;;;18.10;99.90;;;;;;4973660;28;20054;-65
2022/03/23 08:51:15;;;;;;;40.42;29.92;;;18.30;99.90;;;;;;4967886;28;20514;-65
2022/03/23 08:53:42;;;;;;;39.42;29.80;;;18.30;99.60;;;;;;4973810;28;20391;-65
2022/03/23 08:56:10;;;;;;;42.45;31.05;;;18.60;99.80;;;;;;4972319;28;20050;-65
2022/03/23 08:58:37;;;;;;;41.15;31.13;;;18.80;98.80;;;;;;4973656;28;20101;-65
2022/03/23 09:01:03;;;;;;;38.50;29.75;;;19.00;98.90;;;;;;4955801;28;20079;-65
2022/03/23 09:03:28;;;;;;;54.20;29.17;;;19.30;98.40;;;;;;4959885;28;20089;-65
2022/03/23 09:05:54;;;;;;;39.88;27.95;;;19.40;97.70;;;;;;4961920;28;20035;-65
2022/03/23 09:08:19;;;;;;;37.55;27.58;;;19.60;97.00;;;;;;4953437;28;20058;-65
2022/03/23 09:10:45;;;;;;;37.75;26.17;;;19.80;97.00;;;;;;4954775;28;20098;-65
2022/03/23 09:13:11;;;;;;;31.45;25.67;;;19.80;95.80;;;;;;4953450;28;20051;-65
2022/03/23 09:15:36;;;;;;;33.80;26.23;;;19.70;95.20;;;;;;4952262;28;20783;-65
2022/03/23 09:18:03;;;;;;;36.60;27.55;;;19.60;95.10;;;;;;4955119;28;20047;-65
2022/03/23 09:20:29;;;;;;;44.63;25.30;;;19.60;95.10;;;;;;4964677;28;20094;-65
2022/03/23 09:22:56;;;;;;;37.65;26.23;;;19.60;95.00;;;;;;4970864;28;20055;-65
2022/03/23 09:25:24;;;;;;;42.25;26.77;;;19.70;94.60;;;;;;4972764;28;20078;-65
2022/03/23 09:27:51;;;;;;;40.97;27.15;;;19.80;94.60;;;;;;4971355;28;20089;-65
2022/03/23 09:30:17;;;;;;;40.45;27.17;;;20.00;94.30;;;;;;4951884;28;20418;-65
2022/03/23 09:32:44;;;;;;;33.50;25.08;;;20.20;94.20;;;;;;4954287;28;20102;-65
2022/03/23 09:35:11;;;;;;;44.03;26.40;;;20.30;93.90;;;;;;4962967;28;20065;-65
2022/03/23 09:37:49;;;;;;;40.88;29.00;;;20.40;93.30;;;;;;4954104;28;20047;-65
2022/03/23 09:40:24;;;;;;;40.30;25.15;;;20.80;93.20;;;;;;4967212;28;20578;-65
2022/03/23 09:42:50;;;;;;;45.03;28.20;;;20.70;92.20;;;;;;4952854;28;20047;-65
2022/03/23 09:48:09;;;;;;;41.88;27.50;;;20.30;91.40;;;;;;4954090;29;20051;-65
2022/03/23 09:50:36;;;;;;;32.17;25.58;;;20.30;92.30;;;;;;4963351;28;20059;-65
2022/03/23 09:53:03;;;;;;;35.58;26.60;;;20.90;92.40;;;;;;4969561;28;20054;-65
2022/03/23 09:55:29;;;;;;;44.42;27.10;;;21.00;92.20;;;;;;4951625;28;20392;-65
2022/03/23 09:57:59;;;;;;;40.95;26.48;;;21.20;91.50;;;;;;4953022;28;20045;-65
2022/03/23 10:00:29;;;;;;;36.28;24.73;;;21.40;91.00;;;;;;4953203;28;20050;-65
2022/03/23 10:02:57;;;;;;;34.00;24.95;;;21.00;89.80;;;;;;4973879;28;20047;-65
2022/03/23 10:06:00;;;;;;;38.85;27.73;;;20.90;90.00;;;;;;4971749;28;20042;-65
2022/03/23 10:08:47;;;;;;;41.90;26.50;;;20.80;90.10;;;;;;4969332;28;20043;-65
2022/03/23 10:11:34;;;;;;;42.08;26.65;;;20.90;90.20;;;;;;4972901;28;20050;-65
2022/03/23 10:14:37;;;;;;;41.00;25.50;;;20.70;89.90;;;;;;4972960;28;20059;-65
2022/03/23 10:17:27;;;;;;;32.83;25.50;;;20.70;89.60;;;;;;4972751;28;20082;-65
2022/03/23 10:19:54;;;;;;;44.83;26.48;;;20.40;89.10;;;;;;4971659;28;20065;-65
2022/03/23 10:22:25;;;;;;;41.40;24.70;;;20.50;89.60;;;;;;4969393;28;20083;-65
2022/03/23 10:24:50;;;;;;;37.95;26.70;;;20.70;90.60;;;;;;4972519;28;20414;-65
2022/03/23 10:27:22;;;;;;;42.15;29.58;;;20.60;90.50;;;;;;4969990;28;20039;-65
2022/03/23 10:29:52;;;;;;;49.20;27.15;;;20.30;90.80;;;;;;4970313;28;20050;-65
2022/03/23 10:32:20;;;;;;;42.10;29.85;;;20.20;90.90;;;;;;4972770;28;20050;-65
2022/03/23 10:34:51;;;;;;;34.75;26.77;;;20.10;91.10;;;;;;4971625;28;20067;-65
2022/03/23 10:37:29;;;;;;;47.08;28.45;;;20.30;90.90;;;;;;4952991;28;20124;-65
2022/03/23 10:39:56;;;;;;;36.55;27.98;;;20.10;90.70;;;;;;4963963;28;20050;-65
2022/03/23 10:42:24;;;;;;;35.78;27.30;;;20.00;90.80;;;;;;4991334;28;20125;-65
2022/03/23 10:45:01;;;;;;;34.33;22.55;;;20.00;90.60;;;;;;4977566;28;20619;-65
2022/03/23 10:47:31;;;;;;;32.53;23.05;;;20.20;90.50;;;;;;4951725;28;20043;-65
2022/03/23 10:50:05;;;;;;;35.53;24.48;;;20.10;86.30;;;;;;4951417;28;20047;-65
2022/03/23 10:52:32;;;;;;;33.95;24.42;;;20.20;86.80;;;;;;4952541;28;20058;-65
2022/03/23 10:55:04;;;;;;;32.92;21.50;;;20.20;86.80;;;;;;4951748;28;20055;-65
2022/03/23 10:57:51;;;;;;;36.00;21.92;;;20.40;84.30;;;;;;4964403;28;20050;-65
2022/03/23 11:00:29;;;;;;;33.65;20.48;;;20.50;84.80;;;;;;4971746;28;20450;-66
2022/03/23 11:02:55;;;;;;;33.92;22.42;;;20.50;83.50;;;;;;4954653;28;20167;-65
2022/03/23 11:05:31;;;;;;;31.77;21.92;;;20.50;83.60;;;;;;4968369;28;20394;-65
2022/03/23 11:08:21;;;;;;;26.88;18.75;;;20.60;84.10;;;;;;4969007;28;20053;-65
2022/03/23 11:16:30;;;;;;;29.80;19.73;;;20.90;80.90;;;;;;4970628;28;20070;-65
2022/03/23 11:19:16;;;;;;;32.03;20.58;;;21.00;80.40;;;;;;4969929;28;20053;-65
2022/03/23 11:22:09;;;;;;;25.95;17.35;;;21.10;79.40;;;;;;4952250;28;20051;-65
2022/03/23 11:24:36;;;;;;;31.15;18.00;;;21.10;77.90;;;;;;4965457;28;20434;-65
2022/03/23 11:27:04;;;;;;;29.50;19.85;;;21.30;80.10;;;;;;4972001;28;20062;-65
2022/03/23 11:29:31;;;;;;;35.75;22.77;;;21.20;80.10;;;;;;4967837;28;20050;-65
2022/03/23 11:32:00;;;;;;;31.80;21.00;;;21.30;78.60;;;;;;4969389;28;20452;-65
2022/03/23 11:34:30;;;;;;;31.83;21.13;;;21.40;80.60;;;;;;4951035;28;20114;-65
2022/03/23 11:36:56;;;;;;;31.17;18.25;;;21.70;81.90;;;;;;4951702;28;20043;-65
2022/03/23 11:39:22;;;;;;;29.60;16.60;;;21.80;78.70;;;;;;4955027;28;20043;-65
2022/03/23 11:41:51;;;;;;;32.33;16.65;;;21.80;77.10;;;;;;4989386;28;20486;-65
2022/03/23 11:44:18;;;;;;;26.98;18.08;;;21.70;76.60;;;;;;4981727;28;20102;-65
2022/03/23 11:46:45;;;;;;;29.05;18.02;;;21.90;77.20;;;;;;4952399;28;20047;-65
2022/03/23 11:49:47;;;;;;;27.75;19.63;;;21.90;77.20;;;;;;4952332;28;20086;-65
2022/03/23 11:52:15;;;;;;;34.55;21.08;;;21.90;76.00;;;;;;4953012;28;20055;-65
2022/03/23 11:57:56;;;;;;;26.77;19.23;;;22.40;74.10;;;;;;4953313;28;20668;-65
2022/03/23 12:00:24;;;;;;;31.85;19.55;;;22.40;74.30;;;;;;4955566;28;20055;-65
2022/03/23 12:02:50;;;;;;;33.97;19.48;;;22.40;76.30;;;;;;4997476;28;20051;-65
2022/03/23 12:05:26;;;;;;;27.75;20.30;;;22.30;74.20;;;;;;4957942;28;20039;-66
2022/03/23 12:07:51;;;;;;;33.67;21.40;;;22.50;74.90;;;;;;4956181;28;20043;-65
2022/03/23 12:10:22;;;;;;;29.77;20.38;;;22.60;72.40;;;;;;4963176;28;20465;-66
2022/03/23 12:12:47;;;;;;;31.05;20.98;;;22.50;72.40;;;;;;4974323;28;20506;-65
2022/03/23 12:15:26;;;;;;;29.95;20.83;;;22.50;71.00;;;;;;4975400;28;20082;-65
2022/03/23 12:17:55;;;;;;;28.02;17.55;;;22.60;70.50;;;;;;4975212;28;20058;-65
2022/03/23 12:20:37;;;;;;;29.15;17.00;;;22.60;72.00;;;;;;4962409;28;20051;-66
2022/03/23 12:23:02;;;;;;;29.35;17.63;;;23.10;73.80;;;;;;4954362;28;20284;-65
2022/03/23 12:25:47;;;;;;;27.63;18.83;;;23.20;72.60;;;;;;4953415;28;20845;-65
2022/03/23 12:28:33;;;;;;;28.67;17.50;;;22.90;68.60;;;;;;4955602;28;20058;-65
2022/03/23 12:31:02;;;;;;;23.92;15.07;;;22.80;68.80;;;;;;4960235;28;20042;-66
2022/03/23 12:33:29;;;;;;;30.02;16.63;;;23.10;72.30;;;;;;4959848;28;20094;-65
2022/03/23 12:36:04;;;;;;;24.77;16.73;;;23.20;70.00;;;;;;4955019;28;20066;-65
2022/03/23 12:38:30;;;;;;;29.80;17.95;;;23.10;69.80;;;;;;4954660;28;20131;-65
2022/03/23 12:41:04;;;;;;;21.77;16.05;;;23.00;68.10;;;;;;4982813;28;20112;-65
2022/03/23 12:43:37;;;;;;;24.25;15.70;;;22.90;70.40;;;;;;4954413;28;20438;-66
2022/03/23 12:46:04;;;;;;;27.70;17.65;;;23.40;70.30;;;;;;4955346;28;20059;-66
2022/03/23 12:59:37;;;;;;;24.17;19.35;;;23.50;69.30;;;;;;4955296;28;20162;-66
2022/03/23 13:02:18;;;;;;;20.70;17.30;;;23.40;67.80;;;;;;4967112;28;20554;-64
2022/03/23 13:04:43;;;;;;;18.80;14.73;;;23.60;68.90;;;;;;4952339;28;20126;-63
2022/03/23 13:07:40;;;;;;;38.70;17.65;;;23.90;71.30;;;;;;4969231;28;20121;-63
2022/03/23 13:10:11;;;;;;;27.88;17.58;;;23.90;68.60;;;;;;5004331;28;20062;-63